createdAt,value
2018-12-11T00:02:07.259Z,98387.36
2018-12-11T00:04:36.896Z,98381.92
2018-12-11T00:07:07.059Z,98381.86
2018-12-11T00:09:36.332Z,98383.81
2018-12-11T00:12:05.701Z,98381.78
2018-12-11T00:14:34.978Z,98387.49
2018-12-11T00:17:04.529Z,98394.84
2018-12-11T00:19:33.817Z,98388.42
2018-12-11T00:22:03.587Z,98387.76
2018-12-11T00:24:32.931Z,98384.31
2018-12-11T00:27:02.316Z,98390.84
2018-12-11T00:29:31.615Z,98390.55
2018-12-11T00:32:00.917Z,98391.56
2018-12-11T00:34:30.264Z,98392.52
2018-12-11T00:36:59.540Z,98390.25
2018-12-11T00:39:28.936Z,98386.18
2018-12-11T00:41:58.221Z,98394.80
2018-12-11T00:44:27.543Z,98395.62
2018-12-11T00:46:56.833Z,98393.98
2018-12-11T00:49:26.139Z,98390.97
2018-12-11T00:51:55.411Z,98394.71
2018-12-11T00:54:24.655Z,98401.11
2018-12-11T00:56:53.908Z,98386.64
2018-12-11T00:59:23.205Z,98398.48
2018-12-11T01:01:52.535Z,98387.30
2018-12-11T01:04:21.912Z,98388.58
2018-12-11T01:06:51.215Z,98389.56
2018-12-11T01:09:20.632Z,98387.76
2018-12-11T01:11:49.880Z,98392.48
2018-12-11T01:14:19.156Z,98391.01
2018-12-11T01:16:48.414Z,98390.52
2018-12-11T01:19:17.869Z,98399.97
2018-12-11T01:21:47.144Z,98396.85
2018-12-11T01:24:16.693Z,98400.95
2018-12-11T01:26:46.118Z,98398.63
2018-12-11T01:29:15.487Z,98393.05
2018-12-11T01:31:44.791Z,98397.77
2018-12-11T01:34:14.177Z,98403.31
2018-12-11T01:36:43.492Z,98397.41
2018-12-11T01:39:12.784Z,98398.72
2018-12-11T01:41:42.037Z,98395.47
2018-12-11T01:44:11.449Z,98397.70
2018-12-11T01:46:40.703Z,98399.50
2018-12-11T01:49:10.233Z,98401.34
2018-12-11T01:51:39.533Z,98399.38
2018-12-11T01:54:08.902Z,98404.10
2018-12-11T01:56:38.359Z,98404.47
2018-12-11T01:59:07.975Z,98407.75
2018-12-11T02:01:37.360Z,98397.86
2018-12-11T02:04:06.856Z,98403.17
2018-12-11T02:06:36.192Z,98409.64
2018-12-11T02:09:07.640Z,98407.31
2018-12-11T02:11:37.054Z,98411.09
2018-12-11T02:14:06.414Z,98410.23
2018-12-11T02:16:35.746Z,98411.91
2018-12-11T02:19:05.062Z,98407.73
2018-12-11T02:21:34.324Z,98407.53
2018-12-11T02:24:03.732Z,98407.37
2018-12-11T02:26:33.124Z,98411.80
2018-12-11T02:29:02.605Z,98398.99
2018-12-11T02:31:31.664Z,98404.12
2018-12-11T02:34:01.017Z,98404.34
2018-12-11T02:36:30.626Z,98409.38
2018-12-11T02:39:00.033Z,98404.95
2018-12-11T02:41:29.346Z,98406.59
2018-12-11T02:43:58.643Z,98405.03
2018-12-11T02:46:27.915Z,98403.47
2018-12-11T02:48:57.204Z,98403.67
2018-12-11T02:51:26.595Z,98395.88
2018-12-11T02:53:55.916Z,98411.36
2018-12-11T02:56:25.260Z,98403.80
2018-12-11T02:58:54.575Z,98405.08
2018-12-11T03:01:24.159Z,98399.00
2018-12-11T03:03:54.071Z,98400.64
2018-12-11T03:06:23.382Z,98405.57
2018-12-11T03:08:52.689Z,98399.16
2018-12-11T03:11:21.971Z,98400.59
2018-12-11T03:13:51.380Z,98404.99
2018-12-11T03:16:20.765Z,98399.69
2018-12-11T03:18:50.060Z,98400.14
2018-12-11T03:21:19.355Z,98399.24
2018-12-11T03:23:48.766Z,98405.52
2018-12-11T03:26:18.135Z,98408.88
2018-12-11T03:28:47.475Z,98400.70
2018-12-11T03:31:17.088Z,98403.75
2018-12-11T03:33:46.518Z,98403.75
2018-12-11T03:36:15.768Z,98403.22
2018-12-11T03:38:45.084Z,98405.84
2018-12-11T03:41:14.993Z,98405.48
2018-12-11T03:43:44.493Z,98413.37
2018-12-11T03:46:13.794Z,98416.86
2018-12-11T03:48:43.035Z,98419.37
2018-12-11T03:51:12.297Z,98412.59
2018-12-11T03:53:41.583Z,98410.30
2018-12-11T03:56:11.009Z,98407.09
2018-12-11T03:58:40.303Z,98416.83
2018-12-11T04:01:09.707Z,98410.58
2018-12-11T04:03:39.080Z,98407.24
2018-12-11T04:06:08.359Z,98402.16
2018-12-11T04:08:37.656Z,98401.50
2018-12-11T04:11:07.012Z,98407.82
2018-12-11T04:13:36.350Z,98407.33
2018-12-11T04:16:05.649Z,98407.58
2018-12-11T04:18:34.954Z,98415.05
2018-12-11T04:21:04.266Z,98411.44
2018-12-11T04:23:33.656Z,98414.23
2018-12-11T04:26:03.104Z,98415.05
2018-12-11T04:28:32.356Z,98413.12
2018-12-11T04:31:01.726Z,98410.13
2018-12-11T04:33:31.025Z,98407.05
2018-12-11T04:36:00.423Z,98402.07
2018-12-11T04:38:29.708Z,98413.58
2018-12-11T04:40:58.999Z,98415.25
2018-12-11T04:43:28.282Z,98417.36
2018-12-11T04:45:57.642Z,98420.51
2018-12-11T04:48:26.972Z,98423.80
2018-12-11T04:50:56.289Z,98420.84
2018-12-11T04:53:25.672Z,98421.70
2018-12-11T04:55:55.003Z,98424.20
2018-12-11T04:58:24.427Z,98423.87
2018-12-11T05:00:53.792Z,98429.26
2018-12-11T05:03:23.054Z,98431.23
2018-12-11T05:05:52.375Z,98428.44
2018-12-11T05:08:21.631Z,98422.28
2018-12-11T05:10:50.979Z,98424.66
2018-12-11T05:13:20.270Z,98423.97
2018-12-11T05:15:49.635Z,98415.91
2018-12-11T05:18:21.176Z,98394.14
2018-12-11T05:20:50.227Z,98412.45
2018-12-11T05:23:19.527Z,98406.42
2018-12-11T05:25:48.869Z,98413.81
2018-12-11T05:28:18.200Z,98418.86
2018-12-11T05:30:47.516Z,98420.30
2018-12-11T05:33:16.870Z,98412.62
2018-12-11T05:35:46.256Z,98422.14
2018-12-11T05:38:15.576Z,98415.50
2018-12-11T05:40:45.007Z,98415.05
2018-12-11T05:43:14.437Z,98413.00
2018-12-11T05:45:43.763Z,98414.77
2018-12-11T05:48:13.047Z,98414.02
2018-12-11T05:50:42.480Z,98417.92
2018-12-11T05:53:11.750Z,98413.49
2018-12-11T05:55:41.159Z,98419.73
2018-12-11T05:58:10.779Z,98416.94
2018-12-11T06:00:40.060Z,98421.86
2018-12-11T06:03:09.472Z,98414.60
2018-12-11T06:05:38.770Z,98421.17
2018-12-11T06:08:08.068Z,98418.66
2018-12-11T06:10:37.397Z,98428.97
2018-12-11T06:13:06.769Z,98426.42
2018-12-11T06:15:36.086Z,98422.61
2018-12-11T06:18:05.445Z,98419.08
2018-12-11T06:20:34.796Z,98424.30
2018-12-11T06:23:04.136Z,98417.27
2018-12-11T06:25:33.593Z,98423.02
2018-12-11T06:28:04.021Z,98422.66
2018-12-11T06:30:33.585Z,98417.52
2018-12-11T06:33:03.727Z,98423.84
2018-12-11T06:35:33.165Z,98416.94
2018-12-11T06:38:03.282Z,98422.97
2018-12-11T06:40:32.760Z,98419.23
2018-12-11T06:43:02.088Z,98422.31
2018-12-11T06:45:31.440Z,98451.96
2018-12-11T06:48:00.827Z,98421.61
2018-12-11T06:50:30.387Z,98422.47
2018-12-11T06:52:59.688Z,98422.14
2018-12-11T06:55:29.037Z,98432.45
2018-12-11T06:57:58.372Z,98426.22
2018-12-11T07:00:27.776Z,98428.59
2018-12-11T07:02:57.135Z,98432.30
2018-12-11T07:05:26.465Z,98435.73
2018-12-11T07:07:55.788Z,98431.85
2018-12-11T07:10:26.016Z,98435.62
2018-12-11T07:12:55.480Z,98442.89
2018-12-11T07:15:24.904Z,98443.91
2018-12-11T07:17:54.201Z,98433.00
2018-12-11T07:20:23.533Z,98438.33
2018-12-11T07:22:52.861Z,98441.00
2018-12-11T07:25:22.495Z,98445.89
2018-12-11T07:27:51.864Z,98451.83
2018-12-11T07:30:21.288Z,98441.62
2018-12-11T07:32:50.636Z,98446.78
2018-12-11T07:35:19.949Z,98450.06
2018-12-11T07:37:49.249Z,98448.39
2018-12-11T07:40:18.658Z,98455.28
2018-12-11T07:42:47.999Z,98445.84
2018-12-11T07:45:17.289Z,98454.15
2018-12-11T07:47:46.549Z,98451.69
2018-12-11T07:50:16.044Z,98457.98
2018-12-11T07:52:45.401Z,98451.33
2018-12-11T07:55:14.832Z,98456.54
2018-12-11T07:57:44.134Z,98459.25
2018-12-11T08:00:13.563Z,98457.23
2018-12-11T08:02:42.879Z,98461.02
2018-12-11T08:05:12.349Z,98456.53
2018-12-11T08:07:41.705Z,98452.59
2018-12-11T08:10:11.019Z,98457.73
2018-12-11T08:12:40.369Z,98460.60
2018-12-11T08:15:11.348Z,98457.20
2018-12-11T08:17:40.789Z,98449.71
2018-12-11T08:20:10.332Z,98456.28
2018-12-11T08:22:39.659Z,98448.68
2018-12-11T08:25:09.075Z,98454.80
2018-12-11T08:27:38.371Z,98443.25
2018-12-11T08:30:08.016Z,98441.98
2018-12-11T08:32:37.418Z,98445.03
2018-12-11T08:35:06.891Z,98442.77
2018-12-11T08:37:36.241Z,98434.44
2018-12-11T08:40:05.908Z,98445.13
2018-12-11T08:42:35.184Z,98448.32
2018-12-11T08:45:04.896Z,98455.72
2018-12-11T08:47:34.260Z,98453.13
2018-12-11T08:50:03.650Z,98459.17
2018-12-11T08:52:32.958Z,98453.81
2018-12-11T08:55:02.251Z,98460.39
2018-12-11T08:57:31.539Z,98453.52
2018-12-11T09:00:00.857Z,98451.80
2018-12-11T09:02:30.179Z,98458.94
2018-12-11T09:04:59.434Z,98454.42
2018-12-11T09:07:28.940Z,98466.67
2018-12-11T09:09:58.240Z,98469.80
2018-12-11T09:12:27.535Z,98470.73
2018-12-11T09:14:56.880Z,98468.48
2018-12-11T09:17:26.150Z,98473.53
2018-12-11T09:19:55.544Z,98490.58
2018-12-11T09:22:24.978Z,98477.22
2018-12-11T09:24:54.260Z,98482.03
2018-12-11T09:27:30.313Z,98482.96
2018-12-11T09:29:59.333Z,98488.47
2018-12-11T09:32:28.733Z,98485.44
2018-12-11T09:34:58.004Z,98480.02
2018-12-11T09:37:27.356Z,98473.94
2018-12-11T09:39:56.615Z,98480.84
2018-12-11T09:42:28.089Z,98476.67
2018-12-11T09:44:57.322Z,98470.30
2018-12-11T09:47:26.576Z,98482.05
2018-12-11T09:49:55.949Z,98476.52
2018-12-11T09:52:25.299Z,98475.27
2018-12-11T09:54:54.682Z,98475.05
2018-12-11T09:57:24.028Z,98476.09
2018-12-11T09:59:53.274Z,98471.59
2018-12-11T10:02:22.567Z,98476.77
2018-12-11T10:04:51.949Z,98476.04
2018-12-11T10:07:21.224Z,98474.33
2018-12-11T10:09:50.534Z,98468.22
2018-12-11T10:12:19.810Z,98468.34
2018-12-11T10:14:49.073Z,98473.09
2018-12-11T10:17:18.383Z,98464.41
2018-12-11T10:19:47.664Z,98467.45
2018-12-11T10:22:16.953Z,98468.81
2018-12-11T10:24:46.232Z,98465.33
2018-12-11T10:27:15.673Z,98462.30
2018-12-11T10:29:45.018Z,98456.49
2018-12-11T10:32:14.413Z,98426.24
2018-12-11T10:34:43.690Z,98455.95
2018-12-11T10:37:13.019Z,98450.95
2018-12-11T10:39:42.454Z,98452.84
2018-12-11T10:42:16.304Z,98445.36
2018-12-11T10:44:47.335Z,98449.19
2018-12-11T10:47:16.735Z,98420.77
2018-12-11T10:49:46.036Z,98453.97
2018-12-11T10:52:15.353Z,98454.53
2018-12-11T10:54:44.631Z,98445.30
2018-12-11T10:57:13.930Z,98439.73
2018-12-11T10:59:43.244Z,98438.64
2018-12-11T11:02:18.016Z,98439.37
2018-12-11T11:04:47.411Z,98440.10
2018-12-11T11:07:16.704Z,98441.05
2018-12-11T11:09:46.704Z,98440.66
2018-12-11T11:12:16.151Z,98434.98
2018-12-11T11:14:45.557Z,98432.68
2018-12-11T11:17:14.840Z,98431.16
2018-12-11T11:19:44.125Z,98429.28
2018-12-11T11:22:13.532Z,98428.46
2018-12-11T11:24:42.810Z,98431.86
2018-12-11T11:27:12.137Z,98433.44
2018-12-11T11:29:41.416Z,98441.66
2018-12-11T11:32:10.699Z,98439.31
2018-12-11T11:34:41.434Z,98432.00
2018-12-11T11:37:10.736Z,98430.55
2018-12-11T11:39:40.033Z,98431.44
2018-12-11T11:42:09.357Z,98431.75
2018-12-11T11:44:39.909Z,98433.06
2018-12-11T11:47:09.805Z,98432.20
2018-12-11T11:49:39.099Z,98428.92
2018-12-11T11:52:08.520Z,98427.41
2018-12-11T11:54:37.783Z,98422.59
2018-12-11T11:57:07.051Z,98429.76
2018-12-11T11:59:36.407Z,98423.30
2018-12-11T12:02:06.101Z,98424.42
2018-12-11T12:04:35.451Z,98424.54
2018-12-11T12:07:05.023Z,98418.00
2018-12-11T12:09:34.282Z,98425.31
2018-12-11T12:12:03.540Z,98411.92
2018-12-11T12:14:32.828Z,98408.78
2018-12-11T12:17:02.169Z,98412.62
2018-12-11T12:19:31.605Z,98407.87
2018-12-11T12:22:00.915Z,98415.69
2018-12-11T12:24:30.202Z,98407.20
2018-12-11T12:26:59.469Z,98405.01
2018-12-11T12:29:28.716Z,98414.02
2018-12-11T12:31:58.198Z,98398.63
2018-12-11T12:34:27.557Z,98403.16
2018-12-11T12:36:59.272Z,98396.64
2018-12-11T12:39:28.590Z,98399.91
2018-12-11T12:41:57.902Z,98396.50
2018-12-11T12:44:27.209Z,98397.38
2018-12-11T12:46:56.569Z,98395.99
2018-12-11T12:49:25.899Z,98387.58
2018-12-11T12:51:55.168Z,98385.73
2018-12-11T12:54:24.436Z,98389.52
2018-12-11T12:56:53.659Z,98386.38
2018-12-11T12:59:22.910Z,98389.61
2018-12-11T13:01:52.130Z,98393.37
2018-12-11T13:04:21.463Z,98396.00
2018-12-11T13:06:50.848Z,98399.77
2018-12-11T13:09:20.202Z,98402.85
2018-12-11T13:11:49.431Z,98399.77
2018-12-11T13:14:18.810Z,98405.03
2018-12-11T13:16:48.079Z,98403.47
2018-12-11T13:19:17.319Z,98400.20
2018-12-11T13:21:46.676Z,98397.76
2018-12-11T13:24:15.925Z,98395.94
2018-12-11T13:26:45.166Z,98397.18
2018-12-11T13:29:14.432Z,98400.39
2018-12-11T13:31:43.721Z,98401.00
2018-12-11T13:34:13.020Z,98393.48
2018-12-11T13:36:42.265Z,98396.57
2018-12-11T13:39:11.551Z,98402.89
2018-12-11T13:41:40.830Z,98396.89
2018-12-11T13:44:10.608Z,98396.89
2018-12-11T13:46:40.292Z,98407.43
2018-12-11T13:49:09.838Z,98408.43
2018-12-11T13:51:39.196Z,98406.55
2018-12-11T13:54:08.575Z,98400.25
2018-12-11T13:56:37.827Z,98390.85
2018-12-11T13:59:07.136Z,98397.95
2018-12-11T14:01:36.392Z,98394.33
2018-12-11T14:04:05.796Z,98398.08
2018-12-11T14:06:35.039Z,98397.38
2018-12-11T14:09:11.318Z,98398.20
2018-12-11T14:11:41.290Z,98394.44
2018-12-11T14:14:10.616Z,98397.12
2018-12-11T14:16:39.892Z,98393.80
2018-12-11T14:19:09.326Z,98386.17
2018-12-11T14:21:38.781Z,98389.86
2018-12-11T14:24:08.068Z,98385.30
2018-12-11T14:26:37.312Z,98385.97
2018-12-11T14:29:06.768Z,98381.34
2018-12-11T14:31:36.216Z,98375.67
2018-12-11T14:34:05.648Z,98382.88
2018-12-11T14:36:35.188Z,98382.51
2018-12-11T14:39:07.355Z,98391.48
2018-12-11T14:41:36.634Z,98384.32
2018-12-11T14:44:06.111Z,98401.08
2018-12-11T14:46:35.456Z,98395.61
2018-12-11T14:49:04.812Z,98393.17
2018-12-11T14:51:34.264Z,98394.00
2018-12-11T14:54:03.880Z,98403.65
2018-12-11T14:56:33.247Z,98407.72
2018-12-11T14:59:02.604Z,98399.32
2018-12-11T15:01:31.825Z,98401.95
2018-12-11T15:04:01.111Z,98397.75
2018-12-11T15:06:30.433Z,98402.84
2018-12-11T15:09:05.033Z,98395.55
2018-12-11T15:11:34.284Z,98400.50
2018-12-11T15:14:03.701Z,98400.37
2018-12-11T15:16:33.060Z,98402.52
2018-12-11T15:19:02.420Z,98403.24
2018-12-11T15:21:31.666Z,98402.91
2018-12-11T15:24:07.377Z,98397.69
2018-12-11T15:26:36.636Z,98398.56
2018-12-11T15:29:05.876Z,98398.24
2018-12-11T15:31:36.226Z,98394.91
2018-12-11T15:34:05.681Z,98391.24
2018-12-11T15:36:35.040Z,98390.37
2018-12-11T15:39:06.309Z,98398.09
2018-12-11T15:41:35.768Z,98392.39
2018-12-11T15:44:05.241Z,98390.95
2018-12-11T15:46:34.728Z,98389.42
2018-12-11T15:49:04.106Z,98391.23
2018-12-11T15:51:33.409Z,98396.55
2018-12-11T15:54:02.755Z,98388.76
2018-12-11T15:56:32.180Z,98394.57
2018-12-11T15:59:01.580Z,98392.09
2018-12-11T16:01:30.934Z,98393.67
2018-12-11T16:04:00.301Z,98393.64
2018-12-11T16:06:29.701Z,98396.73
2018-12-11T16:08:59.243Z,98401.20
2018-12-11T16:11:28.744Z,98400.80
2018-12-11T16:13:58.113Z,98399.73
2018-12-11T16:16:27.980Z,98400.52
2018-12-11T16:18:57.514Z,98405.31
2018-12-11T16:21:26.771Z,98403.54
2018-12-11T16:23:56.086Z,98404.45
2018-12-11T16:26:25.394Z,98413.81
2018-12-11T16:28:54.677Z,98413.37
2018-12-11T16:31:24.168Z,98415.30
2018-12-11T16:33:53.509Z,98410.66
2018-12-11T16:36:22.907Z,98407.37
2018-12-11T16:38:52.287Z,98415.75
2018-12-11T16:41:21.680Z,98413.94
2018-12-11T16:43:50.979Z,98407.09
2018-12-11T16:46:20.382Z,98417.15
2018-12-11T16:48:49.642Z,98417.11
2018-12-11T16:51:18.899Z,98423.31
2018-12-11T16:53:48.183Z,98423.42
2018-12-11T16:56:17.481Z,98414.60
2018-12-11T16:58:46.820Z,98419.77
2018-12-11T17:01:16.121Z,98415.87
2018-12-11T17:03:45.342Z,98419.49
2018-12-11T17:06:14.630Z,98420.67
2018-12-11T17:08:43.915Z,98420.80
2018-12-11T17:11:13.184Z,98420.14
2018-12-11T17:16:16.435Z,98419.91
2018-12-11T17:18:45.740Z,98421.05
2018-12-11T17:21:15.100Z,98425.44
2018-12-11T17:23:44.354Z,98422.28
2018-12-11T17:26:13.704Z,98433.83
2018-12-11T17:28:43.064Z,98436.45
2018-12-11T17:31:12.433Z,98435.79
2018-12-11T17:33:41.707Z,98440.72
2018-12-11T17:36:10.983Z,98444.17
2018-12-11T17:38:40.263Z,98441.62
2018-12-11T17:41:09.635Z,98441.67
2018-12-11T17:43:38.936Z,98442.12
2018-12-11T17:46:08.288Z,98434.44
2018-12-11T17:48:41.546Z,98440.31
2018-12-11T17:51:09.218Z,98444.70
2018-12-11T17:53:38.883Z,98434.76
2018-12-11T17:56:08.285Z,98440.72
2018-12-11T17:58:37.616Z,98442.20
2018-12-11T18:01:06.828Z,98437.52
2018-12-11T18:03:36.187Z,98444.08
2018-12-11T18:06:05.542Z,98456.45
2018-12-11T18:08:34.775Z,98437.23
2018-12-11T18:11:04.133Z,98443.96
2018-12-11T18:13:33.432Z,98442.12
2018-12-11T18:16:02.749Z,98442.86
2018-12-11T18:18:32.030Z,98446.44
2018-12-11T18:21:01.322Z,98449.55
2018-12-11T18:23:30.581Z,98447.58
2018-12-11T18:25:59.887Z,98446.39
2018-12-11T18:28:29.193Z,98453.13
2018-12-11T18:30:58.475Z,98454.23
2018-12-11T18:33:27.909Z,98450.41
2018-12-11T18:35:57.409Z,98458.18
2018-12-11T18:38:26.837Z,98453.45
2018-12-11T18:40:56.287Z,98459.66
2018-12-11T18:43:25.607Z,98462.66
2018-12-11T18:45:54.947Z,98461.30
2018-12-11T18:48:24.469Z,98461.63
2018-12-11T18:50:53.816Z,98457.85
2018-12-11T18:53:24.243Z,98459.86
2018-12-11T18:55:54.024Z,98450.98
2018-12-11T18:58:24.722Z,98457.11
2018-12-11T19:00:54.226Z,98453.09
2018-12-11T19:03:23.774Z,98459.70
2018-12-11T19:05:57.985Z,98456.41
2018-12-11T19:08:27.363Z,98459.20
2018-12-11T19:10:56.435Z,98452.01
2018-12-11T19:13:27.112Z,98461.05
2018-12-11T19:15:57.448Z,98457.39
2018-12-11T19:18:26.980Z,98457.47
2018-12-11T19:20:56.683Z,98458.08
2018-12-11T19:24:40.360Z,98441.59
2018-12-11T19:27:09.679Z,98450.92
2018-12-11T19:29:39.570Z,98459.00
2018-12-11T19:32:09.031Z,98461.47
2018-12-11T19:34:38.377Z,98460.12
2018-12-11T19:37:07.755Z,98454.63
2018-12-11T19:39:37.057Z,98471.24
2018-12-11T19:42:06.789Z,98457.16
2018-12-11T19:44:36.039Z,98458.34
2018-12-11T19:47:06.332Z,98455.77
2018-12-11T19:49:35.635Z,98446.23
2018-12-11T19:52:05.249Z,98445.10
2018-12-11T19:54:34.564Z,98457.27
2018-12-11T19:57:05.110Z,98441.19
2018-12-11T19:59:34.418Z,98441.59
2018-12-11T20:02:03.746Z,98439.60
2018-12-11T20:04:33.094Z,98437.69
2018-12-11T20:07:02.344Z,98435.24
2018-12-11T20:09:31.877Z,98452.65
2018-12-11T20:12:03.743Z,98431.17
2018-12-11T20:14:33.034Z,98428.89
2018-12-11T20:17:02.834Z,98430.20
2018-12-11T20:19:32.158Z,98424.46
2018-12-11T20:24:43.770Z,98429.44
2018-12-11T20:27:13.329Z,98426.22
2018-12-11T20:29:47.832Z,98429.97
2018-12-11T20:32:20.665Z,98427.89
2018-12-11T20:34:50.239Z,98431.30
2018-12-11T20:37:20.287Z,98429.86
2018-12-11T20:39:50.032Z,98427.12
2018-12-11T20:42:19.364Z,98420.26
2018-12-11T20:44:48.754Z,98420.30
2018-12-11T20:47:19.875Z,98421.29
2018-12-11T20:49:49.102Z,98418.19
2018-12-11T20:52:18.525Z,98419.36
2018-12-11T20:54:47.918Z,98423.09
2018-12-11T20:57:17.369Z,98422.28
2018-12-11T20:59:47.065Z,98421.98
2018-12-11T21:02:16.345Z,98423.80
2018-12-11T21:04:45.904Z,98424.10
2018-12-11T21:07:15.342Z,98427.55
2018-12-11T21:09:44.812Z,98428.21
2018-12-11T21:12:14.277Z,98431.16
2018-12-11T21:14:43.559Z,98426.61
2018-12-11T21:17:12.841Z,98425.44
2018-12-11T21:19:45.245Z,98426.27
2018-12-11T21:22:14.555Z,98426.28
2018-12-11T21:24:43.935Z,98424.64
2018-12-11T21:27:13.564Z,98424.16
2018-12-11T21:32:27.116Z,98419.41
2018-12-11T21:34:56.383Z,98424.65
2018-12-11T21:37:25.873Z,98425.14
2018-12-11T21:39:55.176Z,98424.50
2018-12-11T21:42:24.546Z,98415.19
2018-12-11T21:44:53.987Z,98417.95
2018-12-11T21:47:23.324Z,98416.80
2018-12-11T21:49:52.591Z,98416.16
2018-12-11T21:55:04.894Z,98411.08
2018-12-11T21:57:34.227Z,98411.08
2018-12-11T22:00:03.837Z,98410.92
2018-12-11T22:02:33.102Z,98412.53
2018-12-11T22:05:02.476Z,98414.51
2018-12-11T22:07:31.749Z,98418.77
2018-12-11T22:10:01.052Z,98413.20
2018-12-11T22:12:30.584Z,98417.77
2018-12-11T22:14:59.860Z,98414.50
2018-12-11T22:17:29.196Z,98419.06
2018-12-11T22:19:58.479Z,98424.30
2018-12-11T22:22:27.822Z,98429.39
2018-12-11T22:24:57.148Z,98437.58
2018-12-11T22:27:26.401Z,98442.62
2018-12-11T22:29:55.736Z,98436.42
2018-12-11T22:32:25.021Z,98442.33
2018-12-11T22:34:54.323Z,98438.74
2018-12-11T22:37:23.555Z,98445.44
2018-12-11T22:39:52.903Z,98441.83
2018-12-11T22:42:22.212Z,98438.05
2018-12-11T22:44:51.508Z,98435.11
2018-12-11T22:47:20.750Z,98431.17
2018-12-11T22:49:50.012Z,98424.08
2018-12-11T22:52:19.259Z,98426.05
2018-12-11T22:54:48.527Z,98429.64
2018-12-11T22:57:17.901Z,98429.96
2018-12-11T22:59:47.184Z,98428.66
2018-12-11T23:02:16.492Z,98434.70
2018-12-11T23:04:45.759Z,98439.59
2018-12-11T23:07:15.010Z,98443.36
2018-12-11T23:09:45.339Z,98444.17
2018-12-11T23:12:14.586Z,98448.09
2018-12-11T23:14:43.953Z,98444.45
2018-12-11T23:17:13.300Z,98442.02
2018-12-11T23:19:42.571Z,98445.77
2018-12-11T23:22:11.876Z,98435.11
2018-12-11T23:24:41.363Z,98441.80
2018-12-11T23:27:10.707Z,98448.36
2018-12-11T23:29:40.040Z,98447.36
2018-12-11T23:32:09.312Z,98444.05
2018-12-11T23:34:38.628Z,98442.59
2018-12-11T23:37:07.910Z,98444.41
2018-12-11T23:39:37.200Z,98440.14
2018-12-11T23:42:06.527Z,98437.85
2018-12-11T23:44:35.811Z,98433.78
2018-12-11T23:47:05.307Z,98429.52
2018-12-11T23:49:34.566Z,98428.20
2018-12-11T23:52:04.021Z,98431.00
2018-12-11T23:54:33.312Z,98424.44
2018-12-11T23:57:02.605Z,98432.64
2018-12-11T23:59:32.088Z,98428.69
